createdAt,value
2023-01-21T00:01:35.822Z,23.27
2023-01-21T00:04:05.416Z,29.60
2023-01-21T00:06:33.338Z,21.97
2023-01-21T00:09:00.946Z,23.40
2023-01-21T00:11:28.860Z,30.00
2023-01-21T00:13:56.833Z,21.87
2023-01-21T00:16:24.622Z,21.13
2023-01-21T00:18:52.202Z,22.40
2023-01-21T00:21:22.530Z,22.60
2023-01-21T00:23:50.261Z,24.43
2023-01-21T00:26:17.916Z,23.37
2023-01-21T00:28:46.844Z,25.47
2023-01-21T00:31:14.894Z,20.03
2023-01-21T00:33:42.784Z,24.03
2023-01-21T00:36:11.971Z,26.57
2023-01-21T00:38:41.096Z,24.80
2023-01-21T00:41:10.312Z,22.00
2023-01-21T00:43:39.516Z,19.90
2023-01-21T00:46:08.110Z,19.10
2023-01-21T00:48:35.979Z,20.70
2023-01-21T00:51:03.959Z,18.47
2023-01-21T00:53:32.689Z,20.30
2023-01-21T00:56:02.337Z,20.07
2023-01-21T00:58:30.652Z,20.23
2023-01-21T01:01:03.623Z,20.23
2023-01-21T01:03:31.675Z,20.53
2023-01-21T01:06:03.005Z,22.10
2023-01-21T01:08:31.211Z,22.20
2023-01-21T01:10:58.811Z,20.40
2023-01-21T01:13:28.570Z,20.83
2023-01-21T01:15:58.145Z,21.70
2023-01-21T01:18:26.866Z,18.20
2023-01-21T01:20:54.471Z,20.13
2023-01-21T01:23:22.864Z,19.77
2023-01-21T01:25:55.411Z,22.53
2023-01-21T01:28:23.597Z,22.60
2023-01-21T01:30:52.869Z,21.33
2023-01-21T01:33:21.021Z,24.03
2023-01-21T01:35:48.989Z,30.50
2023-01-21T01:38:16.972Z,27.37
2023-01-21T01:40:45.343Z,25.10
2023-01-21T01:43:16.067Z,28.10
2023-01-21T01:45:43.711Z,28.20
2023-01-21T01:48:15.036Z,32.73
2023-01-21T01:50:43.231Z,29.47
2023-01-21T01:53:11.873Z,25.20
2023-01-21T01:55:40.024Z,24.17
2023-01-21T01:58:09.183Z,22.37
2023-01-21T02:00:38.211Z,22.70
2023-01-21T02:03:29.058Z,22.53
2023-01-21T02:05:58.116Z,23.90
2023-01-21T02:08:26.934Z,25.47
2023-01-21T02:10:56.455Z,24.57
2023-01-21T02:13:24.520Z,28.10
2023-01-21T02:15:58.465Z,26.23
2023-01-21T02:18:31.015Z,30.60
2023-01-21T02:21:20.063Z,27.60
2023-01-21T02:24:00.357Z,31.23
2023-01-21T02:26:35.331Z,29.17
2023-01-21T02:29:20.830Z,30.77
2023-01-21T02:31:59.079Z,27.37
2023-01-21T02:34:33.624Z,30.77
2023-01-21T02:37:05.786Z,30.30
2023-01-21T02:39:43.002Z,30.50
2023-01-21T02:42:13.914Z,27.50
2023-01-21T02:44:42.282Z,30.30
2023-01-21T02:47:15.574Z,28.33
2023-01-21T02:49:47.001Z,29.63
2023-01-21T02:52:18.755Z,26.37
2023-01-21T02:54:50.880Z,27.93
2023-01-21T02:57:21.399Z,23.17
2023-01-21T02:59:50.292Z,26.13
2023-01-21T03:02:22.719Z,27.53
2023-01-21T03:04:59.355Z,26.03
2023-01-21T03:07:30.127Z,24.87
2023-01-21T03:10:00.939Z,27.00
2023-01-21T03:12:31.705Z,29.63
2023-01-21T03:15:20.666Z,27.10
2023-01-21T03:17:51.966Z,22.77
2023-01-21T03:20:23.302Z,26.30
2023-01-21T03:22:54.397Z,26.37
2023-01-21T03:25:23.053Z,26.10
2023-01-21T03:27:50.874Z,23.40
2023-01-21T03:30:19.574Z,25.30
2023-01-21T03:32:49.208Z,26.50
2023-01-21T03:38:14.775Z,24.60
2023-01-21T03:40:44.652Z,22.63
2023-01-21T03:43:12.346Z,24.73
2023-01-21T03:45:43.698Z,24.20
2023-01-21T03:48:14.870Z,23.37
2023-01-21T03:50:45.542Z,29.70
2023-01-21T03:53:16.321Z,31.07
2023-01-21T03:55:44.172Z,29.73
2023-01-21T03:58:12.365Z,23.60
2023-01-21T04:00:40.080Z,20.50
2023-01-21T04:03:08.067Z,23.10
2023-01-21T04:05:38.184Z,25.07
2023-01-21T04:08:05.897Z,20.90
2023-01-21T04:10:35.214Z,27.20
2023-01-21T04:13:02.894Z,18.00
2023-01-21T04:15:30.628Z,21.07
2023-01-21T04:17:58.891Z,20.20
2023-01-21T04:20:26.718Z,24.67
2023-01-21T04:22:54.708Z,20.77
2023-01-21T04:25:22.599Z,20.13
2023-01-21T04:27:51.774Z,21.23
2023-01-21T04:30:19.505Z,19.07
2023-01-21T04:32:47.549Z,17.50
2023-01-21T04:35:15.431Z,17.77
2023-01-21T04:37:43.261Z,18.73
2023-01-21T04:40:12.044Z,16.17
2023-01-21T04:42:39.694Z,20.63
2023-01-21T04:45:12.362Z,14.60
2023-01-21T04:47:41.792Z,16.30
2023-01-21T04:50:10.114Z,18.10
2023-01-21T04:52:37.918Z,14.80
2023-01-21T04:55:06.062Z,17.10
2023-01-21T04:57:33.722Z,14.13
2023-01-21T05:00:01.562Z,17.70
2023-01-21T05:02:30.950Z,12.37
2023-01-21T05:04:58.696Z,14.47
2023-01-21T05:07:26.305Z,13.97
2023-01-21T05:09:54.301Z,13.83
2023-01-21T05:12:21.988Z,16.00
2023-01-21T05:14:53.612Z,15.50
2023-01-21T05:17:21.544Z,17.33
2023-01-21T05:19:51.082Z,14.70
2023-01-21T05:22:19.198Z,13.60
2023-01-21T05:24:46.844Z,14.70
2023-01-21T05:27:16.066Z,17.60
2023-01-21T05:29:43.699Z,16.50
2023-01-21T05:32:11.670Z,13.97
2023-01-21T05:34:39.427Z,14.40
2023-01-21T05:37:08.626Z,14.93
2023-01-21T05:39:37.031Z,13.43
2023-01-21T05:42:04.810Z,16.57
2023-01-21T05:44:32.666Z,13.33
2023-01-21T05:47:00.432Z,15.10
2023-01-21T05:49:28.128Z,14.03
2023-01-21T05:51:55.746Z,18.30
2023-01-21T05:54:25.111Z,15.80
2023-01-21T05:56:54.926Z,17.30
2023-01-21T05:59:22.535Z,16.20
2023-01-21T06:01:50.615Z,14.67
2023-01-21T06:04:18.217Z,13.13
2023-01-21T06:06:46.037Z,13.80
2023-01-21T06:09:13.850Z,21.30
2023-01-21T06:11:42.867Z,23.07
2023-01-21T06:14:12.351Z,17.77
2023-01-21T06:16:40.370Z,15.80
2023-01-21T06:19:08.020Z,14.23
2023-01-21T06:21:35.985Z,14.80
2023-01-21T06:24:04.650Z,19.10
2023-01-21T06:26:34.043Z,17.10
2023-01-21T06:29:03.202Z,21.77
2023-01-21T06:31:31.727Z,17.70
2023-01-21T06:33:59.475Z,20.70
2023-01-21T06:36:27.103Z,18.83
2023-01-21T06:38:56.332Z,19.70
2023-01-21T06:41:23.958Z,19.73
2023-01-21T06:43:51.883Z,19.83
2023-01-21T06:46:20.895Z,21.37
2023-01-21T06:48:48.688Z,21.07
2023-01-21T06:51:16.402Z,23.27
2023-01-21T06:53:44.531Z,21.20
2023-01-21T06:56:12.646Z,21.07
2023-01-21T06:58:40.281Z,20.90
2023-01-21T07:01:07.917Z,20.93
2023-01-21T07:03:37.000Z,24.47
2023-01-21T07:06:04.934Z,22.67
2023-01-21T07:08:33.244Z,21.57
2023-01-21T07:11:00.930Z,25.20
2023-01-21T07:13:28.586Z,22.83
2023-01-21T07:16:01.130Z,29.03
2023-01-21T07:18:28.994Z,28.77
2023-01-21T07:20:58.297Z,25.07
2023-01-21T07:23:26.504Z,25.40
2023-01-21T07:25:54.275Z,28.53
2023-01-21T07:28:21.935Z,23.67
2023-01-21T07:30:49.717Z,29.93
2023-01-21T07:33:17.418Z,27.33
2023-01-21T07:35:45.073Z,25.50
2023-01-21T07:38:14.391Z,29.50
2023-01-21T07:40:41.988Z,23.63
2023-01-21T07:43:10.002Z,25.47
2023-01-21T07:45:38.136Z,25.70
2023-01-21T07:48:06.507Z,24.07
2023-01-21T07:50:34.987Z,27.40
2023-01-21T07:53:02.915Z,25.83
2023-01-21T07:55:32.151Z,30.17
2023-01-21T07:58:00.703Z,26.63
2023-01-21T08:00:29.182Z,29.37
2023-01-21T08:02:57.596Z,25.50
2023-01-21T08:05:26.379Z,29.90
2023-01-21T08:07:54.146Z,28.40
2023-01-21T08:10:22.349Z,28.53
2023-01-21T08:12:51.812Z,29.03
2023-01-21T08:15:19.831Z,26.23
2023-01-21T08:17:48.846Z,21.93
2023-01-21T08:20:16.763Z,26.50
2023-01-21T08:22:44.381Z,32.07
2023-01-21T08:25:12.107Z,24.20
2023-01-21T08:27:40.433Z,23.20
2023-01-21T08:30:10.301Z,23.53
2023-01-21T08:32:38.125Z,27.33
2023-01-21T08:35:06.693Z,23.63
2023-01-21T08:37:34.504Z,26.33
2023-01-21T08:40:02.125Z,26.77
2023-01-21T08:42:30.290Z,25.20
2023-01-21T08:44:57.858Z,24.57
2023-01-21T08:47:26.974Z,23.60
2023-01-21T08:49:54.887Z,22.90
2023-01-21T08:52:22.832Z,21.43
2023-01-21T08:54:50.886Z,22.67
2023-01-21T08:57:18.927Z,26.03
2023-01-21T08:59:46.515Z,23.00
2023-01-21T09:02:14.374Z,21.63
2023-01-21T09:04:43.620Z,24.27
2023-01-21T09:07:11.467Z,23.93
2023-01-21T09:09:39.102Z,23.80
2023-01-21T09:12:07.442Z,23.57
2023-01-21T09:14:35.341Z,21.90
2023-01-21T09:17:03.338Z,23.37
2023-01-21T09:19:31.238Z,29.87
2023-01-21T09:22:00.408Z,24.60
2023-01-21T09:24:28.036Z,22.50
2023-01-21T09:26:56.480Z,23.93
2023-01-21T09:29:24.753Z,26.53
2023-01-21T09:31:52.597Z,23.70
2023-01-21T09:34:20.462Z,23.07
2023-01-21T09:36:48.096Z,25.57
2023-01-21T09:39:17.099Z,24.00
2023-01-21T09:41:46.659Z,22.17
2023-01-21T09:44:16.427Z,23.33
2023-01-21T09:46:48.667Z,22.63
2023-01-21T09:49:19.449Z,25.30
2023-01-21T09:51:52.400Z,24.23
2023-01-21T09:54:25.437Z,25.33
2023-01-21T09:56:58.811Z,23.33
2023-01-21T09:59:33.884Z,24.87
2023-01-21T10:02:05.799Z,24.50
2023-01-21T10:04:36.736Z,26.47
2023-01-21T10:07:07.897Z,25.97
2023-01-21T10:09:46.028Z,25.53
2023-01-21T10:12:25.703Z,27.40
2023-01-21T10:15:03.785Z,25.70
2023-01-21T10:17:38.197Z,34.60
2023-01-21T10:20:12.216Z,24.80
2023-01-21T10:22:41.648Z,25.13
2023-01-21T10:25:17.272Z,27.83
2023-01-21T10:27:48.641Z,26.50
2023-01-21T10:30:24.435Z,22.77
2023-01-21T10:32:54.000Z,27.30
2023-01-21T10:35:26.712Z,24.20
2023-01-21T10:38:02.490Z,24.80
2023-01-21T10:40:48.550Z,23.30
2023-01-21T10:43:20.653Z,28.20
2023-01-21T10:45:51.121Z,23.90
2023-01-21T10:48:21.101Z,27.30
2023-01-21T10:50:52.110Z,21.13
2023-01-21T10:53:23.468Z,23.73
2023-01-21T10:55:56.813Z,27.83
2023-01-21T10:58:27.831Z,27.10
2023-01-21T11:00:59.348Z,22.30
2023-01-21T11:03:32.138Z,28.73
2023-01-21T11:06:02.916Z,25.57
2023-01-21T11:08:31.199Z,21.13
2023-01-21T11:11:00.588Z,22.73
2023-01-21T11:13:30.305Z,21.87
2023-01-21T11:15:59.193Z,22.57
2023-01-21T11:18:28.490Z,22.90
2023-01-21T11:20:57.537Z,24.50
2023-01-21T11:23:27.197Z,22.93
2023-01-21T11:26:02.598Z,23.33
2023-01-21T11:28:31.157Z,23.13
2023-01-21T11:31:05.087Z,21.83
2023-01-21T11:33:32.959Z,26.37
2023-01-21T11:36:10.202Z,22.90
2023-01-21T11:38:38.382Z,25.07
2023-01-21T11:41:14.926Z,26.13
2023-01-21T11:43:43.493Z,24.40
2023-01-21T11:46:22.507Z,23.53
2023-01-21T11:48:50.720Z,27.73
2023-01-21T11:51:19.018Z,25.40
2023-01-21T11:53:47.730Z,22.53
2023-01-21T11:56:17.476Z,20.77
2023-01-21T11:58:45.392Z,23.10
2023-01-21T12:01:19.819Z,24.83
2023-01-21T12:03:51.477Z,21.13
2023-01-21T12:06:21.172Z,21.30
2023-01-21T12:08:50.270Z,19.90
2023-01-21T12:11:22.037Z,21.87
2023-01-21T12:13:52.415Z,18.07
2023-01-21T12:16:26.505Z,20.90
2023-01-21T12:19:03.962Z,18.93
2023-01-21T12:21:40.433Z,20.47
2023-01-21T12:24:15.050Z,20.40
2023-01-21T12:26:46.375Z,17.33
2023-01-21T12:29:22.408Z,18.80
2023-01-21T12:31:53.206Z,16.70
2023-01-21T12:34:24.862Z,12.87
2023-01-21T12:36:54.980Z,16.00
2023-01-21T12:39:25.848Z,17.40
2023-01-21T12:42:08.051Z,21.73
2023-01-21T12:44:38.754Z,16.80
2023-01-21T12:47:10.049Z,14.83
2023-01-21T12:49:52.212Z,15.40
2023-01-21T12:52:22.563Z,20.93
2023-01-21T12:54:55.231Z,14.53
2023-01-21T12:57:26.695Z,18.27
2023-01-21T12:59:57.372Z,17.13
2023-01-21T13:02:28.574Z,21.27
2023-01-21T13:05:19.845Z,13.60
2023-01-21T13:07:50.587Z,13.27
2023-01-21T13:10:21.030Z,14.17
2023-01-21T13:12:52.941Z,14.70
2023-01-21T13:15:22.591Z,11.13
2023-01-21T13:17:51.547Z,14.83
2023-01-21T13:20:20.551Z,15.13
2023-01-21T13:22:51.935Z,10.40
2023-01-21T13:25:22.415Z,10.57
2023-01-21T13:27:55.427Z,16.23
2023-01-21T13:30:27.610Z,14.40
2023-01-21T13:33:03.773Z,13.73
2023-01-21T13:35:34.963Z,16.50
2023-01-21T13:38:06.513Z,16.73
2023-01-21T13:40:39.834Z,15.20
2023-01-21T13:43:15.707Z,11.97
2023-01-21T13:45:47.995Z,15.63
2023-01-21T13:48:21.636Z,15.27
2023-01-21T13:50:53.227Z,15.40
2023-01-21T13:53:32.801Z,13.27
2023-01-21T13:56:07.981Z,15.50
2023-01-21T13:58:39.871Z,14.20
2023-01-21T14:01:11.309Z,11.43
2023-01-21T14:03:43.811Z,11.50
2023-01-21T14:06:12.872Z,12.73
2023-01-21T14:08:42.393Z,11.70
2023-01-21T14:11:12.710Z,11.97
2023-01-21T14:13:58.252Z,15.77
2023-01-21T14:16:40.809Z,11.30
2023-01-21T14:19:18.670Z,11.47
2023-01-21T14:21:52.466Z,11.77
2023-01-21T14:24:30.403Z,8.60
2023-01-21T14:27:04.776Z,10.20
2023-01-21T14:29:36.186Z,12.30
2023-01-21T14:32:06.480Z,12.97
2023-01-21T14:34:41.706Z,9.50
2023-01-21T14:37:12.171Z,14.20
2023-01-21T14:39:45.938Z,10.80
2023-01-21T14:42:16.199Z,12.30
2023-01-21T14:44:45.310Z,14.30
2023-01-21T14:47:14.726Z,14.07
2023-01-21T14:49:45.172Z,13.83
2023-01-21T14:52:16.608Z,12.60
2023-01-21T14:54:45.086Z,12.20
2023-01-21T14:57:27.335Z,11.37
2023-01-21T14:59:56.435Z,8.90
2023-01-21T15:02:28.364Z,8.10
2023-01-21T15:04:58.999Z,7.57
2023-01-21T15:07:29.866Z,8.33
2023-01-21T15:09:59.147Z,18.20
2023-01-21T15:12:29.350Z,10.17
2023-01-21T15:14:58.702Z,9.20
2023-01-21T15:17:45.247Z,10.17
2023-01-21T15:20:31.921Z,8.43
2023-01-21T15:23:20.280Z,11.10
2023-01-21T15:26:04.423Z,9.87
2023-01-21T15:28:40.647Z,11.33
2023-01-21T15:31:09.717Z,12.50
2023-01-21T15:33:40.108Z,9.93
2023-01-21T15:36:13.940Z,14.60
2023-01-21T15:38:43.332Z,13.53
2023-01-21T15:41:13.908Z,8.87
2023-01-21T15:43:44.961Z,8.73
2023-01-21T15:46:20.751Z,13.07
2023-01-21T15:48:57.510Z,8.33
2023-01-21T15:51:30.056Z,17.40
2023-01-21T15:54:07.041Z,12.70
2023-01-21T15:56:48.710Z,9.07
2023-01-21T15:59:25.497Z,16.63
2023-01-21T16:02:08.226Z,11.60
2023-01-21T16:04:40.297Z,10.37
2023-01-21T16:07:14.765Z,12.30
2023-01-21T16:09:52.439Z,11.93
2023-01-21T16:12:24.640Z,13.90
2023-01-21T16:14:59.962Z,10.07
2023-01-21T16:17:35.103Z,13.63
2023-01-21T16:20:05.641Z,17.80
2023-01-21T16:22:36.067Z,14.90
2023-01-21T16:25:07.488Z,12.60
2023-01-21T16:27:36.012Z,16.97
2023-01-21T16:30:05.552Z,18.63
2023-01-21T16:32:37.160Z,13.63
2023-01-21T16:35:06.694Z,12.47
2023-01-21T16:37:34.677Z,12.67
2023-01-21T16:40:26.823Z,12.90
2023-01-21T16:43:05.805Z,11.87
2023-01-21T16:45:33.802Z,12.70
2023-01-21T16:48:01.463Z,16.63
2023-01-21T16:50:30.171Z,17.97
2023-01-21T16:52:59.404Z,18.20
2023-01-21T16:55:29.192Z,20.70
2023-01-21T16:57:57.548Z,19.30
2023-01-21T17:00:27.049Z,18.03
2023-01-21T17:02:54.858Z,16.10
2023-01-21T17:05:22.900Z,18.17
2023-01-21T17:07:53.854Z,15.07
2023-01-21T17:10:22.731Z,13.30
2023-01-21T17:12:53.997Z,11.40
2023-01-21T17:15:26.529Z,11.23
2023-01-21T17:17:55.615Z,10.07
2023-01-21T17:20:38.037Z,9.17
2023-01-21T17:23:07.862Z,16.83
2023-01-21T17:25:35.944Z,15.03
2023-01-21T17:28:16.813Z,12.53
2023-01-21T17:30:44.656Z,14.20
2023-01-21T17:36:18.609Z,12.30
2023-01-21T17:38:47.657Z,15.10
2023-01-21T17:41:24.171Z,10.63
2023-01-21T17:43:56.005Z,12.17
2023-01-21T17:46:24.195Z,12.40
2023-01-21T17:48:53.449Z,9.00
2023-01-21T17:51:22.175Z,10.47
2023-01-21T17:53:52.932Z,10.77
2023-01-21T17:56:34.929Z,15.10
2023-01-21T17:59:04.064Z,11.30
2023-01-21T18:01:32.217Z,13.90
2023-01-21T18:04:00.240Z,10.37
2023-01-21T18:06:29.325Z,14.57
2023-01-21T18:08:58.235Z,11.53
2023-01-21T18:11:26.099Z,11.37
2023-01-21T18:13:53.915Z,14.47
2023-01-21T18:16:23.176Z,13.67
2023-01-21T18:18:53.965Z,11.90
2023-01-21T18:21:22.039Z,10.50
2023-01-21T18:23:50.168Z,10.50
2023-01-21T18:26:20.773Z,5.90
2023-01-21T18:28:48.472Z,10.73
2023-01-21T18:31:16.744Z,10.70
2023-01-21T18:33:45.807Z,16.83
2023-01-21T18:36:13.713Z,11.73
2023-01-21T18:38:41.469Z,12.03
2023-01-21T18:41:09.416Z,11.23
2023-01-21T18:43:37.036Z,11.23
2023-01-21T18:46:05.225Z,7.97
2023-01-21T18:48:33.347Z,15.47
2023-01-21T18:51:02.408Z,18.17
2023-01-21T18:53:31.596Z,19.23
2023-01-21T18:55:59.395Z,17.33
2023-01-21T18:58:27.068Z,13.27
2023-01-21T19:00:55.247Z,12.00
2023-01-21T19:03:23.535Z,10.03
2023-01-21T19:05:51.999Z,10.20
2023-01-21T19:08:24.975Z,10.53
2023-01-21T19:10:52.875Z,8.73
2023-01-21T19:13:21.749Z,10.50
2023-01-21T19:15:49.925Z,12.63
2023-01-21T19:18:18.364Z,9.00
2023-01-21T19:20:45.995Z,8.87
2023-01-21T19:23:15.502Z,13.13
2023-01-21T19:25:46.138Z,11.90
2023-01-21T19:28:13.787Z,10.00
2023-01-21T19:30:45.015Z,13.60
2023-01-21T19:33:13.308Z,10.17
2023-01-21T19:35:43.367Z,16.97
2023-01-21T19:38:12.175Z,12.23
2023-01-21T19:40:40.148Z,9.27
2023-01-21T19:43:10.599Z,10.67
2023-01-21T19:45:38.457Z,12.67
2023-01-21T19:48:06.900Z,10.90
2023-01-21T19:50:34.717Z,13.43
2023-01-21T19:53:02.395Z,10.77
2023-01-21T19:55:32.309Z,11.70
2023-01-21T19:58:01.573Z,10.77
2023-01-21T20:00:32.877Z,11.43
2023-01-21T20:03:00.730Z,9.93
2023-01-21T20:05:29.740Z,13.13
2023-01-21T20:07:57.864Z,14.13
2023-01-21T20:10:26.423Z,14.20
2023-01-21T20:12:54.135Z,12.47
2023-01-21T20:15:22.965Z,15.30
2023-01-21T20:17:53.691Z,14.80
2023-01-21T20:20:22.204Z,11.63
2023-01-21T20:22:49.910Z,10.70
2023-01-21T20:25:18.264Z,18.50
2023-01-21T20:27:49.941Z,14.37
2023-01-21T20:30:18.507Z,13.33
2023-01-21T20:32:47.075Z,14.03
2023-01-21T20:35:17.087Z,13.90
2023-01-21T20:37:47.832Z,13.87
2023-01-21T20:40:16.881Z,15.63
2023-01-21T20:42:44.906Z,14.97
2023-01-21T20:45:13.460Z,12.97
2023-01-21T20:47:49.663Z,14.10
2023-01-21T20:50:22.051Z,11.30
2023-01-21T20:52:50.281Z,15.03
2023-01-21T20:55:21.178Z,15.27
2023-01-21T20:57:49.587Z,13.87
2023-01-21T21:00:19.653Z,16.47
2023-01-21T21:02:48.899Z,12.60
2023-01-21T21:05:18.106Z,16.87
2023-01-21T21:07:47.390Z,18.10
2023-01-21T21:10:19.509Z,11.67
2023-01-21T21:12:48.214Z,10.97
2023-01-21T21:15:16.985Z,15.33
2023-01-21T21:17:46.876Z,11.10
2023-01-21T21:20:17.741Z,11.20
2023-01-21T21:22:47.080Z,12.50
2023-01-21T21:25:16.351Z,13.63
2023-01-21T21:27:44.982Z,13.40
2023-01-21T21:30:14.529Z,11.17
2023-01-21T21:32:42.269Z,15.97
2023-01-21T21:35:19.036Z,15.60
2023-01-21T21:37:48.508Z,14.80
2023-01-21T21:40:16.335Z,14.63
2023-01-21T21:43:02.169Z,11.13
2023-01-21T21:45:29.894Z,15.47
2023-01-21T21:48:15.193Z,17.87
2023-01-21T21:50:44.188Z,14.43
2023-01-21T21:53:13.321Z,13.10
2023-01-21T21:55:41.173Z,10.63
2023-01-21T21:58:08.843Z,14.80
2023-01-21T22:00:36.567Z,15.03
2023-01-21T22:03:06.803Z,16.10
2023-01-21T22:05:35.470Z,12.73
2023-01-21T22:08:04.092Z,16.23
2023-01-21T22:10:34.094Z,14.77
2023-01-21T22:13:01.789Z,18.00
2023-01-21T22:15:29.709Z,14.47
2023-01-21T22:17:57.889Z,11.60
2023-01-21T22:20:25.938Z,10.87
2023-01-21T22:22:53.568Z,14.73
2023-01-21T22:25:21.501Z,13.90
2023-01-21T22:27:50.642Z,13.73
2023-01-21T22:30:18.803Z,14.50
2023-01-21T22:32:46.706Z,11.60
2023-01-21T22:35:14.519Z,14.37
2023-01-21T22:37:42.215Z,10.00
2023-01-21T22:40:10.292Z,10.60
2023-01-21T22:42:40.120Z,12.10
2023-01-21T22:45:09.908Z,14.63
2023-01-21T22:47:37.803Z,14.20
2023-01-21T22:50:05.850Z,15.23
2023-01-21T22:52:33.510Z,15.20
2023-01-21T22:55:01.282Z,13.27
2023-01-21T22:57:28.886Z,11.07
2023-01-21T22:59:56.819Z,12.20
2023-01-21T23:02:26.381Z,14.33
2023-01-21T23:04:54.197Z,13.53
2023-01-21T23:07:21.819Z,13.77
2023-01-21T23:09:50.300Z,12.77
2023-01-21T23:12:19.571Z,12.87
2023-01-21T23:14:47.836Z,9.60
2023-01-21T23:17:16.665Z,12.77
2023-01-21T23:19:47.231Z,11.80
2023-01-21T23:22:14.901Z,15.43
2023-01-21T23:24:42.980Z,12.67
2023-01-21T23:27:10.589Z,11.33
2023-01-21T23:29:38.663Z,12.90
2023-01-21T23:32:06.895Z,12.57
2023-01-21T23:34:34.719Z,15.33
2023-01-21T23:37:03.666Z,10.37
2023-01-21T23:39:31.705Z,15.37
2023-01-21T23:41:59.308Z,11.93
2023-01-21T23:44:27.144Z,11.97
2023-01-21T23:46:55.043Z,13.90
2023-01-21T23:49:22.783Z,15.90
2023-01-21T23:51:50.434Z,12.70
2023-01-21T23:54:20.017Z,15.07
2023-01-21T23:56:47.667Z,14.90
2023-01-21T23:59:15.307Z,11.60
